createdAt,value
2018-06-21T00:00:22.518Z,21.17
2018-06-21T00:04:24.765Z,16.13
2018-06-21T00:08:27.039Z,19.80
2018-06-21T00:12:29.306Z,16.73
2018-06-21T00:16:31.566Z,17.57
2018-06-21T00:20:34.815Z,15.90
2018-06-21T00:24:37.103Z,19.67
2018-06-21T00:28:39.374Z,16.20
2018-06-21T00:32:41.654Z,16.97
2018-06-21T00:36:43.946Z,19.73
2018-06-21T00:40:46.206Z,21.23
2018-06-21T00:44:48.986Z,21.20
2018-06-21T00:48:51.262Z,18.07
2018-06-21T00:52:54.578Z,18.17
2018-06-21T00:56:56.856Z,24.37
2018-06-21T01:00:59.610Z,25.67
2018-06-21T01:05:01.906Z,26.77
2018-06-21T01:09:05.587Z,26.37
2018-06-21T01:13:07.833Z,22.03
2018-06-21T01:17:10.098Z,19.73
2018-06-21T01:21:12.377Z,19.27
2018-06-21T01:25:14.650Z,20.50
2018-06-21T01:29:16.913Z,19.63
2018-06-21T01:33:19.186Z,19.57
2018-06-21T01:37:21.427Z,17.10
2018-06-21T01:41:23.858Z,22.20
2018-06-21T01:45:26.145Z,20.90
2018-06-21T01:49:28.414Z,20.03
2018-06-21T01:53:31.050Z,22.37
2018-06-21T01:57:33.330Z,18.30
2018-06-21T02:01:35.588Z,19.23
2018-06-21T02:05:37.848Z,22.70
2018-06-21T02:09:40.118Z,21.03
2018-06-21T02:13:42.370Z,19.17
2018-06-21T02:17:44.658Z,20.87
2018-06-21T02:21:46.930Z,20.67
2018-06-21T02:25:49.213Z,22.13
2018-06-21T02:29:51.470Z,15.67
2018-06-21T02:33:53.758Z,18.27
2018-06-21T02:37:56.059Z,11.73
2018-06-21T02:41:58.315Z,11.97
2018-06-21T02:46:00.590Z,13.67
2018-06-21T02:50:02.851Z,12.30
2018-06-21T02:54:05.191Z,9.00
2018-06-21T02:58:07.432Z,9.13
2018-06-21T03:02:09.688Z,10.10
2018-06-21T03:06:12.068Z,11.83
2018-06-21T03:10:14.322Z,11.00
2018-06-21T03:14:16.563Z,10.07
2018-06-21T03:18:18.807Z,9.63
2018-06-21T03:22:21.057Z,11.20
2018-06-21T03:26:23.306Z,9.83
2018-06-21T03:30:25.593Z,7.80
2018-06-21T03:34:27.878Z,8.80
2018-06-21T03:38:30.144Z,12.33
2018-06-21T03:42:32.387Z,12.43
2018-06-21T03:46:35.394Z,7.67
2018-06-21T03:50:37.711Z,7.37
2018-06-21T03:54:39.974Z,6.90
2018-06-21T03:58:42.205Z,8.83
2018-06-21T04:02:44.462Z,6.90
2018-06-21T04:06:46.733Z,7.97
2018-06-21T04:10:49.021Z,6.20
2018-06-21T04:14:51.254Z,10.50
2018-06-21T04:18:54.150Z,8.67
2018-06-21T04:22:56.400Z,8.23
2018-06-21T04:26:58.654Z,12.37
2018-06-21T04:31:00.990Z,11.40
2018-06-21T04:35:03.245Z,9.80
2018-06-21T04:39:06.130Z,12.77
2018-06-21T04:43:08.490Z,7.23
2018-06-21T04:47:10.786Z,9.13
2018-06-21T04:51:13.054Z,11.03
2018-06-21T04:55:15.310Z,8.93
2018-06-21T04:59:17.573Z,12.63
2018-06-21T05:03:19.826Z,10.10
2018-06-21T05:07:22.149Z,9.20
2018-06-21T05:11:24.420Z,7.23
2018-06-21T05:15:26.750Z,14.57
2018-06-21T05:19:28.982Z,10.03
2018-06-21T05:23:31.310Z,7.50
2018-06-21T05:27:33.529Z,6.40
2018-06-21T05:31:35.698Z,7.87
2018-06-21T05:35:37.888Z,4.70
2018-06-21T05:39:40.052Z,7.10
2018-06-21T05:43:42.220Z,6.07
2018-06-21T05:47:44.412Z,7.80
2018-06-21T05:51:46.751Z,6.57
2018-06-21T05:55:48.936Z,5.27
2018-06-21T05:59:51.096Z,5.80
2018-06-21T06:03:53.384Z,6.37
2018-06-21T06:07:55.552Z,3.20
2018-06-21T06:11:57.736Z,8.60
2018-06-21T06:15:59.908Z,3.80
2018-06-21T06:20:02.399Z,5.47
2018-06-21T06:24:04.593Z,7.90
2018-06-21T06:28:06.788Z,10.80
2018-06-21T06:32:09.003Z,4.50
2018-06-21T06:36:11.193Z,4.17
2018-06-21T06:40:13.452Z,5.03
2018-06-21T06:44:15.949Z,5.00
2018-06-21T06:48:18.131Z,2.70
2018-06-21T06:52:20.308Z,4.67
2018-06-21T06:56:22.487Z,2.37
2018-06-21T07:00:24.706Z,10.37
2018-06-21T07:04:26.896Z,5.23
2018-06-21T07:08:29.129Z,2.90
2018-06-21T07:12:31.272Z,2.77
2018-06-21T07:16:33.456Z,3.00
2018-06-21T07:20:35.635Z,3.07
2018-06-21T07:24:37.899Z,3.47
2018-06-21T07:28:40.157Z,4.77
2018-06-21T07:32:42.308Z,5.23
2018-06-21T07:36:44.501Z,3.83
2018-06-21T07:40:46.664Z,7.57
2018-06-21T07:44:48.840Z,3.80
2018-06-21T07:48:51.137Z,4.70
2018-06-21T07:52:53.320Z,5.00
2018-06-21T07:56:55.559Z,4.60
2018-06-21T08:00:57.869Z,6.43
2018-06-21T08:05:00.121Z,4.43
2018-06-21T08:09:02.312Z,9.50
2018-06-21T08:13:04.994Z,6.73
2018-06-21T08:17:07.450Z,9.00
2018-06-21T08:21:09.752Z,9.70
2018-06-21T08:25:11.941Z,7.60
2018-06-21T08:29:14.258Z,6.60
2018-06-21T08:33:16.484Z,12.23
2018-06-21T08:37:18.661Z,5.90
2018-06-21T08:41:21.147Z,6.30
2018-06-21T08:45:23.397Z,5.27
2018-06-21T08:49:25.600Z,3.80
2018-06-21T08:53:27.768Z,5.60
2018-06-21T08:57:29.971Z,8.63
2018-06-21T09:01:32.169Z,3.47
2018-06-21T09:05:34.333Z,5.70
2018-06-21T09:09:36.550Z,8.30
2018-06-21T09:13:38.692Z,3.80
2018-06-21T09:17:40.906Z,8.50
2018-06-21T09:21:43.113Z,6.70
2018-06-21T09:25:45.520Z,7.00
2018-06-21T09:29:47.699Z,8.00
2018-06-21T09:33:49.893Z,4.60
2018-06-21T09:37:57.885Z,5.87
2018-06-21T09:42:05.887Z,4.87
2018-06-21T09:46:13.659Z,3.80
2018-06-21T09:50:16.962Z,4.80
2018-06-21T09:54:19.132Z,11.97
2018-06-21T09:58:21.321Z,3.10
2018-06-21T10:02:23.511Z,4.30
2018-06-21T10:06:25.715Z,4.43
2018-06-21T10:10:27.947Z,4.87
2018-06-21T10:14:30.143Z,4.53
2018-06-21T10:18:32.352Z,2.90
2018-06-21T10:22:34.520Z,3.50
2018-06-21T10:26:36.960Z,4.23
2018-06-21T10:30:39.764Z,9.10
2018-06-21T10:34:41.994Z,7.53
2018-06-21T10:38:44.434Z,5.97
2018-06-21T10:42:46.643Z,3.87
2018-06-21T10:46:48.836Z,8.70
2018-06-21T10:50:51.348Z,6.60
2018-06-21T10:54:54.054Z,3.10
2018-06-21T10:58:56.300Z,3.00
2018-06-21T11:02:58.480Z,8.57
2018-06-21T11:07:00.644Z,6.13
2018-06-21T11:11:02.880Z,9.53
2018-06-21T11:15:05.148Z,3.50
2018-06-21T11:19:07.325Z,7.90
2018-06-21T11:23:09.508Z,6.03
2018-06-21T11:27:11.708Z,4.47
2018-06-21T11:31:13.892Z,1.77
2018-06-21T11:35:16.080Z,7.13
2018-06-21T11:39:18.240Z,5.87
2018-06-21T11:43:20.429Z,4.10
2018-06-21T11:47:22.656Z,5.77
2018-06-21T11:51:25.756Z,2.43
2018-06-21T11:55:27.920Z,4.33
2018-06-21T11:59:31.132Z,6.23
2018-06-21T12:03:33.309Z,2.50
2018-06-21T12:07:35.491Z,4.10
2018-06-21T12:11:37.688Z,15.40
2018-06-21T12:15:39.881Z,4.77
2018-06-21T12:19:42.072Z,3.97
2018-06-21T12:23:44.244Z,8.07
2018-06-21T12:27:46.623Z,9.50
2018-06-21T12:31:48.879Z,2.90
2018-06-21T12:35:51.056Z,4.50
2018-06-21T12:39:53.265Z,3.40
2018-06-21T12:43:55.517Z,5.80
2018-06-21T12:47:57.732Z,3.90
2018-06-21T12:51:59.936Z,4.57
2018-06-21T12:56:02.100Z,4.03
2018-06-21T13:00:04.408Z,2.33
2018-06-21T13:04:06.912Z,7.87
2018-06-21T13:08:09.088Z,2.70
2018-06-21T13:12:28.105Z,3.70
2018-06-21T13:16:30.324Z,3.10
2018-06-21T13:20:33.618Z,0.97
2018-06-21T13:24:35.804Z,3.77
2018-06-21T13:28:38.144Z,4.00
2018-06-21T13:32:40.429Z,3.13
2018-06-21T13:36:42.628Z,7.47
2018-06-21T13:40:44.992Z,4.17
2018-06-21T13:44:47.168Z,3.60
2018-06-21T13:48:49.380Z,2.10
2018-06-21T13:52:51.564Z,2.07
2018-06-21T13:56:53.796Z,4.10
2018-06-21T14:00:56.068Z,5.60
2018-06-21T14:04:58.816Z,2.63
2018-06-21T14:09:01.017Z,1.20
2018-06-21T14:13:03.233Z,4.67
2018-06-21T14:17:05.480Z,3.97
2018-06-21T14:21:07.665Z,3.17
2018-06-21T14:25:10.009Z,3.83
2018-06-21T14:29:12.248Z,3.17
2018-06-21T14:33:14.554Z,5.63
2018-06-21T14:37:16.764Z,9.53
2018-06-21T14:41:18.948Z,7.83
2018-06-21T14:45:21.145Z,4.17
2018-06-21T14:49:23.319Z,2.77
2018-06-21T14:53:25.531Z,3.40
2018-06-21T14:57:27.732Z,7.20
2018-06-21T15:01:29.937Z,1.63
2018-06-21T15:05:32.165Z,1.50
2018-06-21T15:09:34.523Z,4.67
2018-06-21T15:13:36.752Z,1.30
2018-06-21T15:17:38.970Z,4.07
2018-06-21T15:21:41.195Z,5.17
2018-06-21T15:25:43.477Z,2.73
2018-06-21T15:29:45.685Z,2.60
2018-06-21T15:33:47.860Z,4.50
2018-06-21T15:37:50.132Z,4.53
2018-06-21T15:41:52.328Z,4.53
2018-06-21T15:45:54.584Z,2.77
2018-06-21T15:49:56.792Z,3.23
2018-06-21T15:53:59.234Z,3.60
2018-06-21T15:58:01.467Z,2.80
2018-06-21T16:02:03.696Z,1.93
2018-06-21T16:06:05.945Z,2.20
2018-06-21T16:10:08.138Z,6.30
2018-06-21T16:14:10.423Z,1.73
2018-06-21T16:18:12.608Z,5.00
2018-06-21T16:22:14.829Z,6.40
2018-06-21T16:26:17.028Z,2.53
2018-06-21T16:30:19.260Z,2.10
2018-06-21T16:34:21.624Z,5.37
2018-06-21T16:42:47.227Z,1.80
2018-06-21T16:46:49.419Z,6.83
2018-06-21T16:50:51.678Z,6.13
2018-06-21T16:54:53.804Z,4.10
2018-06-21T16:58:56.040Z,4.83
2018-06-21T17:02:58.239Z,7.17
2018-06-21T17:07:00.453Z,10.00
2018-06-21T17:11:02.688Z,5.40
2018-06-21T17:15:05.186Z,5.20
2018-06-21T17:19:07.820Z,3.17
2018-06-21T17:23:10.012Z,4.83
2018-06-21T17:27:12.205Z,7.73
2018-06-21T17:31:14.419Z,3.90
2018-06-21T17:35:16.628Z,3.40
2018-06-21T17:39:18.837Z,5.30
2018-06-21T17:43:21.016Z,8.33
2018-06-21T17:47:23.234Z,7.00
2018-06-21T17:51:25.457Z,3.60
2018-06-21T17:55:27.676Z,8.83
2018-06-21T17:59:29.892Z,6.67
2018-06-21T18:03:32.072Z,6.30
2018-06-21T18:07:34.356Z,10.33
2018-06-21T18:11:36.568Z,4.73
2018-06-21T18:15:38.776Z,7.47
2018-06-21T18:19:41.020Z,5.60
2018-06-21T18:23:43.200Z,5.17
2018-06-21T18:27:45.656Z,8.23
2018-06-21T18:31:47.879Z,6.53
2018-06-21T18:35:50.172Z,4.10
2018-06-21T18:39:52.356Z,5.93
2018-06-21T18:43:54.607Z,10.70
2018-06-21T18:47:57.656Z,7.07
2018-06-21T18:51:59.841Z,11.57
2018-06-21T18:56:02.061Z,11.30
2018-06-21T19:00:06.437Z,3.30
2018-06-21T19:04:08.639Z,8.00
2018-06-21T19:08:16.820Z,15.03
2018-06-21T19:12:19.185Z,8.63
2018-06-21T19:16:21.464Z,9.73
2018-06-21T19:20:23.684Z,6.77
2018-06-21T19:24:26.032Z,7.90
2018-06-21T19:28:28.240Z,5.50
2018-06-21T19:32:30.436Z,5.57
2018-06-21T19:36:32.716Z,6.27
2018-06-21T19:40:34.857Z,9.10
2018-06-21T19:44:37.048Z,5.30
2018-06-21T19:48:39.437Z,7.67
2018-06-21T19:52:41.648Z,7.93
2018-06-21T19:56:44.520Z,5.07
2018-06-21T20:00:47.872Z,9.07
2018-06-21T20:04:52.052Z,4.50
2018-06-21T20:08:54.262Z,4.20
2018-06-21T20:12:56.448Z,10.60
2018-06-21T20:16:58.688Z,8.47
2018-06-21T20:21:00.905Z,6.10
2018-06-21T20:25:03.253Z,2.33
2018-06-21T20:29:11.173Z,5.73
2018-06-21T20:33:13.401Z,9.17
2018-06-21T20:37:15.635Z,4.33
2018-06-21T20:41:17.845Z,2.97
2018-06-21T20:45:20.048Z,5.00
2018-06-21T20:49:22.264Z,7.77
2018-06-21T20:53:24.450Z,4.53
2018-06-21T20:57:27.606Z,5.03
2018-06-21T21:01:29.805Z,7.57
2018-06-21T21:05:32.008Z,6.37
2018-06-21T21:09:34.196Z,1.90
2018-06-21T21:13:36.392Z,6.00
2018-06-21T21:17:38.614Z,4.23
2018-06-21T21:21:40.807Z,7.73
2018-06-21T21:25:42.992Z,7.67
2018-06-21T21:29:45.177Z,8.50
2018-06-21T21:33:47.371Z,6.40
2018-06-21T21:37:49.573Z,10.83
2018-06-21T21:41:51.745Z,10.27
2018-06-21T21:45:53.928Z,5.10
2018-06-21T21:49:56.312Z,6.50
2018-06-21T21:53:58.494Z,8.57
2018-06-21T21:58:00.611Z,6.07
2018-06-21T22:02:03.172Z,5.63
2018-06-21T22:06:05.905Z,14.33
2018-06-21T22:10:08.164Z,8.83
2018-06-21T22:14:10.297Z,8.97
2018-06-21T22:18:12.508Z,6.10
2018-06-21T22:22:14.656Z,8.83
2018-06-21T22:26:16.842Z,14.20
2018-06-21T22:30:19.012Z,10.93
2018-06-21T22:34:21.240Z,6.43
2018-06-21T22:38:23.413Z,10.83
2018-06-21T22:42:25.682Z,11.17
2018-06-21T22:46:27.816Z,17.87
2018-06-21T22:50:35.170Z,12.53
2018-06-21T22:54:47.354Z,11.77
2018-06-21T22:58:51.439Z,10.57
2018-06-21T23:02:53.622Z,11.23
2018-06-21T23:06:55.792Z,10.57
2018-06-21T23:10:57.964Z,11.27
2018-06-21T23:15:00.164Z,11.47
2018-06-21T23:19:13.918Z,8.50
2018-06-21T23:23:16.105Z,9.83
2018-06-21T23:27:18.289Z,8.23
2018-06-21T23:31:20.452Z,15.37
2018-06-21T23:35:22.632Z,8.57
2018-06-21T23:39:24.824Z,18.13
2018-06-21T23:43:26.987Z,14.33
2018-06-21T23:47:29.220Z,14.23
2018-06-21T23:51:31.404Z,7.33
2018-06-21T23:55:33.608Z,4.40
2018-06-21T23:59:35.800Z,5.50
